Time;durP1;ratioP1;P1;durP2;ratioP2;P2;SDS_P1;SDS_P2;PMS_P1;PMS_P2;Temp;Humidity;BMP_temperature;BMP_pressure;BME280_temperature;BME280_humidity;BME280_pressure;Samples;Min_cycle;Max_cycle;Signal;HPM_P1;HPM_P2
2023/10/27 00:00:07;;;;;;;19.03;7.17;;;;;;;;;;4937022;29;20612;-66
2023/10/27 00:02:38;;;;;;;20.40;7.97;;;;;;;;;;4935875;29;20599;-67
2023/10/27 00:05:06;;;;;;;22.47;7.03;;;;;;;;;;4935511;29;21179;-68
2023/10/27 00:07:34;;;;;;;14.60;6.80;;;;;;;;;;4936590;29;20643;-65
2023/10/27 00:10:02;;;;;;;13.87;6.47;;;;;;;;;;4936512;29;20618;-64
2023/10/27 00:12:32;;;;;;;22.93;7.73;;;;;;;;;;4936450;29;20656;-65
2023/10/27 00:15:00;;;;;;;17.83;7.40;;;;;;;;;;4936594;29;20711;-63
2023/10/27 00:17:28;;;;;;;20.67;7.40;;;;;;;;;;4936192;29;21248;-63
2023/10/27 00:19:58;;;;;;;16.70;7.30;;;;;;;;;;4936735;29;20624;-63
2023/10/27 00:22:26;;;;;;;15.00;5.73;;;;;;;;;;4936815;29;20643;-62
2023/10/27 00:24:54;;;;;;;20.30;7.10;;;;;;;;;;4937151;29;20620;-62
2023/10/27 00:27:22;;;;;;;12.40;6.23;;;;;;;;;;4936594;29;20643;-62
2023/10/27 00:29:52;;;;;;;17.17;6.07;;;;;;;;;;4936206;29;21282;-65
2023/10/27 00:32:20;;;;;;;10.63;5.13;;;;;;;;;;4936481;29;20958;-63
2023/10/27 00:34:48;;;;;;;10.47;5.40;;;;;;;;;;4937091;29;20617;-63
2023/10/27 00:37:17;;;;;;;17.53;5.50;;;;;;;;;;4936589;29;20598;-64
2023/10/27 00:39:45;;;;;;;12.73;5.30;;;;;;;;;;4936833;29;20567;-63
2023/10/27 00:42:13;;;;;;;11.53;5.00;;;;;;;;;;4936254;29;20617;-64
2023/10/27 00:44:41;;;;;;;10.73;4.40;;;;;;;;;;4935569;29;20699;-65
2023/10/27 00:47:11;;;;;;;9.30;4.17;;;;;;;;;;4935120;29;20979;-65
2023/10/27 00:49:39;;;;;;;14.50;4.07;;;;;;;;;;4935459;29;20631;-65
2023/10/27 00:52:08;;;;;;;8.23;4.65;;;;;;;;;;4935253;29;20625;-65
2023/10/27 00:54:37;;;;;;;17.70;5.40;;;;;;;;;;4936140;29;20275;-66
2023/10/27 00:57:05;;;;;;;8.60;3.70;;;;;;;;;;4936546;29;20213;-63
2023/10/27 00:59:36;;;;;;;17.50;4.90;;;;;;;;;;4937726;29;20678;-63
2023/10/27 01:02:04;;;;;;;17.50;4.70;;;;;;;;;;4933381;29;20583;-70
2023/10/27 01:04:34;;;;;;;13.80;4.60;;;;;;;;;;4933176;29;20631;-72
2023/10/27 01:07:02;;;;;;;12.40;4.10;;;;;;;;;;4933060;29;21095;-68
2023/10/27 01:09:30;;;;;;;8.07;4.13;;;;;;;;;;4937399;29;20595;-69
2023/10/27 01:11:59;;;;;;;16.43;4.30;;;;;;;;;;4935533;29;20594;-69
2023/10/27 01:14:27;;;;;;;16.57;4.63;;;;;;;;;;4936055;29;20680;-68
2023/10/27 01:16:57;;;;;;;8.40;4.10;;;;;;;;;;4937102;29;20625;-70
2023/10/27 01:19:26;;;;;;;15.20;4.63;;;;;;;;;;4937118;29;20587;-68
2023/10/27 01:21:55;;;;;;;11.50;4.00;;;;;;;;;;4936335;29;20666;-72
2023/10/27 01:24:25;;;;;;;5.30;4.00;;;;;;;;;;4935723;29;20205;-69
2023/10/27 01:26:53;;;;;;;14.83;4.37;;;;;;;;;;4935723;29;20628;-69
2023/10/27 01:29:23;;;;;;;12.63;4.63;;;;;;;;;;4936188;29;20586;-69
2023/10/27 01:31:51;;;;;;;11.93;4.60;;;;;;;;;;4937221;29;20621;-69
2023/10/27 01:34:19;;;;;;;14.63;5.32;;;;;;;;;;4936146;29;20224;-70
2023/10/27 01:36:47;;;;;;;13.73;4.60;;;;;;;;;;4936950;29;20215;-70
2023/10/27 01:39:16;;;;;;;17.92;5.55;;;;;;;;;;4935909;29;20247;-69
2023/10/27 01:41:45;;;;;;;10.30;5.33;;;;;;;;;;4936861;29;20211;-68
2023/10/27 01:44:14;;;;;;;10.30;4.53;;;;;;;;;;4935979;29;20651;-71
2023/10/27 01:46:42;;;;;;;12.10;5.20;;;;;;;;;;4936788;29;20209;-70
2023/10/27 01:49:10;;;;;;;10.48;5.20;;;;;;;;;;4936025;29;20599;-70
2023/10/27 01:51:38;;;;;;;7.40;4.80;;;;;;;;;;4936207;29;20211;-69
2023/10/27 01:54:06;;;;;;;11.90;4.47;;;;;;;;;;4934854;29;20234;-68
2023/10/27 01:56:35;;;;;;;10.23;3.63;;;;;;;;;;4936776;29;20259;-70
2023/10/27 01:59:04;;;;;;;17.02;7.93;;;;;;;;;;4936165;29;20650;-69
2023/10/27 02:01:33;;;;;;;22.80;16.48;;;;;;;;;;4939677;29;20211;-69
2023/10/27 02:04:01;;;;;;;29.40;19.80;;;;;;;;;;4934994;29;20648;-69
2023/10/27 02:06:29;;;;;;;6.90;4.30;;;;;;;;;;4933905;29;20632;-70
2023/10/27 02:08:57;;;;;;;18.33;10.15;;;;;;;;;;4935904;29;20213;-70
2023/10/27 02:11:26;;;;;;;29.90;15.20;;;;;;;;;;4934686;29;20213;-70
2023/10/27 02:13:55;;;;;;;74.73;41.40;;;;;;;;;;4934175;29;20666;-69
2023/10/27 02:16:24;;;;;;;18.92;11.55;;;;;;;;;;4934282;29;20622;-70
2023/10/27 02:18:52;;;;;;;11.20;6.07;;;;;;;;;;4930681;29;20686;-70
2023/10/27 02:21:21;;;;;;;123.55;72.70;;;;;;;;;;4916958;29;20217;-69
2023/10/27 02:23:49;;;;;;;85.85;57.55;;;;;;;;;;4933988;29;20209;-70
2023/10/27 02:26:18;;;;;;;28.67;19.77;;;;;;;;;;4935336;29;20209;-70
2023/10/27 02:28:47;;;;;;;37.20;21.77;;;;;;;;;;4935369;29;20582;-69
2023/10/27 02:31:15;;;;;;;8.40;4.20;;;;;;;;;;4935296;29;20589;-70
2023/10/27 02:33:45;;;;;;;80.22;49.63;;;;;;;;;;4935149;29;20782;-69
2023/10/27 02:36:13;;;;;;;12.77;5.28;;;;;;;;;;4934909;29;20698;-72
2023/10/27 02:38:41;;;;;;;34.58;27.67;;;;;;;;;;4935480;29;20241;-70
2023/10/27 02:41:10;;;;;;;8.40;5.57;;;;;;;;;;4935227;29;20211;-70
2023/10/27 02:43:38;;;;;;;7.65;3.67;;;;;;;;;;4932625;29;20231;-69
2023/10/27 02:46:07;;;;;;;11.55;4.50;;;;;;;;;;4915902;29;20213;-69
2023/10/27 02:48:35;;;;;;;18.88;4.60;;;;;;;;;;4924221;29;20653;-69
2023/10/27 02:51:05;;;;;;;12.77;5.18;;;;;;;;;;4934761;29;20692;-70
2023/10/27 02:53:33;;;;;;;8.52;3.90;;;;;;;;;;4922055;29;20232;-70
2023/10/27 02:56:05;;;;;;;12.57;4.20;;;;;;;;;;4916348;29;20201;-69
2023/10/27 02:58:33;;;;;;;8.40;4.00;;;;;;;;;;4916335;29;20704;-69
2023/10/27 03:01:07;;;;;;;10.18;4.25;;;;;;;;;;4923247;29;20598;-69
2023/10/27 03:03:35;;;;;;;10.13;4.90;;;;;;;;;;4934021;29;20631;-68
2023/10/27 03:06:05;;;;;;;13.63;5.90;;;;;;;;;;4933821;29;20788;-69
2023/10/27 03:08:34;;;;;;;13.32;5.45;;;;;;;;;;4935131;29;20216;-69
2023/10/27 03:11:02;;;;;;;11.63;4.93;;;;;;;;;;4934013;29;20220;-70
2023/10/27 03:13:31;;;;;;;10.13;5.50;;;;;;;;;;4934723;29;20234;-70
2023/10/27 03:16:00;;;;;;;12.40;5.05;;;;;;;;;;4936037;29;20208;-70
2023/10/27 03:18:28;;;;;;;11.05;5.28;;;;;;;;;;4933594;29;20211;-69
2023/10/27 03:20:56;;;;;;;12.30;6.00;;;;;;;;;;4944474;29;20212;-69
2023/10/27 03:23:26;;;;;;;9.15;5.25;;;;;;;;;;4939448;29;20209;-69
2023/10/27 03:25:55;;;;;;;12.73;6.40;;;;;;;;;;4937107;29;20201;-70
2023/10/27 03:28:23;;;;;;;13.20;5.60;;;;;;;;;;4946265;29;20219;-70
2023/10/27 03:30:51;;;;;;;13.48;6.50;;;;;;;;;;4935408;29;20232;-69
2023/10/27 03:33:19;;;;;;;11.38;6.03;;;;;;;;;;4945877;29;20551;-69
2023/10/27 03:35:48;;;;;;;12.50;6.63;;;;;;;;;;4950863;29;20718;-69
2023/10/27 03:38:17;;;;;;;16.33;6.20;;;;;;;;;;4932251;29;20262;-67
2023/10/27 03:40:48;;;;;;;11.27;7.28;;;;;;;;;;4934707;29;20220;-69
2023/10/27 03:43:17;;;;;;;10.27;6.18;;;;;;;;;;4933551;29;20224;-69
2023/10/27 03:45:45;;;;;;;12.73;6.78;;;;;;;;;;4934798;29;20208;-69
2023/10/27 03:48:14;;;;;;;13.80;6.22;;;;;;;;;;4948119;29;20207;-69
2023/10/27 03:50:42;;;;;;;9.52;6.78;;;;;;;;;;4953408;29;20203;-68
2023/10/27 03:53:10;;;;;;;9.93;7.28;;;;;;;;;;4934746;29;20207;-70
2023/10/27 03:55:38;;;;;;;9.80;6.18;;;;;;;;;;4934637;29;20228;-69
2023/10/27 03:58:18;;;;;;;10.88;6.35;;;;;;;;;;4934461;29;20215;-68
2023/10/27 04:00:46;;;;;;;10.63;6.50;;;;;;;;;;4949828;29;20196;-69
2023/10/27 04:03:14;;;;;;;12.63;6.10;;;;;;;;;;4936575;29;20693;-69
2023/10/27 04:05:43;;;;;;;11.52;7.55;;;;;;;;;;4942945;29;20209;-71
2023/10/27 04:08:11;;;;;;;12.55;6.82;;;;;;;;;;4934423;29;20212;-69
2023/10/27 04:10:39;;;;;;;8.38;5.63;;;;;;;;;;4935512;29;20205;-70
2023/10/27 04:13:08;;;;;;;10.05;7.72;;;;;;;;;;4932494;29;20205;-70
2023/10/27 04:15:37;;;;;;;10.77;6.88;;;;;;;;;;4933762;29;20224;-66
2023/10/27 04:18:06;;;;;;;10.48;6.93;;;;;;;;;;4934547;29;20205;-70
2023/10/27 04:20:34;;;;;;;11.77;6.70;;;;;;;;;;4933813;29;20209;-69
2023/10/27 04:23:03;;;;;;;13.02;6.50;;;;;;;;;;4934687;29;20547;-69
2023/10/27 04:25:31;;;;;;;6.90;6.18;;;;;;;;;;4934106;29;20204;-69
2023/10/27 04:27:59;;;;;;;6.25;5.25;;;;;;;;;;4934553;29;20208;-69
2023/10/27 04:30:31;;;;;;;16.00;6.32;;;;;;;;;;4934102;29;20204;-69
2023/10/27 04:33:01;;;;;;;8.50;5.88;;;;;;;;;;4934036;29;20575;-69
2023/10/27 04:35:29;;;;;;;5.80;5.30;;;;;;;;;;4934651;29;20225;-69
2023/10/27 04:37:58;;;;;;;5.47;4.38;;;;;;;;;;4933945;29;20290;-69
2023/10/27 04:40:28;;;;;;;12.52;5.25;;;;;;;;;;4934635;29;20212;-69
2023/10/27 04:42:58;;;;;;;7.13;3.75;;;;;;;;;;4934709;29;21103;-68
2023/10/27 04:45:26;;;;;;;8.05;3.70;;;;;;;;;;4937504;29;20598;-71
2023/10/27 04:47:55;;;;;;;4.20;3.80;;;;;;;;;;4937942;29;20212;-69
2023/10/27 04:50:24;;;;;;;6.15;3.90;;;;;;;;;;4937366;29;20671;-69
2023/10/27 04:52:53;;;;;;;7.57;3.83;;;;;;;;;;4937378;29;20660;-70
2023/10/27 04:55:21;;;;;;;7.40;4.07;;;;;;;;;;4938019;29;20692;-70
2023/10/27 04:57:49;;;;;;;5.20;4.50;;;;;;;;;;4936911;29;20218;-70
2023/10/27 05:00:18;;;;;;;7.72;4.00;;;;;;;;;;4938623;29;20589;-70
2023/10/27 05:02:46;;;;;;;9.10;4.38;;;;;;;;;;4935984;29;20219;-70
2023/10/27 05:05:14;;;;;;;8.32;4.75;;;;;;;;;;4937691;29;20211;-71
2023/10/27 05:07:44;;;;;;;9.45;4.35;;;;;;;;;;4937595;29;20225;-70
2023/10/27 05:10:13;;;;;;;5.47;4.00;;;;;;;;;;4937882;29;20568;-70
2023/10/27 05:12:41;;;;;;;5.22;4.43;;;;;;;;;;4936631;29;20204;-70
2023/10/27 05:15:09;;;;;;;3.78;3.45;;;;;;;;;;4937157;29;20291;-70
2023/10/27 05:17:37;;;;;;;5.03;3.45;;;;;;;;;;4937584;29;20276;-70
2023/10/27 05:20:06;;;;;;;6.18;4.00;;;;;;;;;;4937757;29;20215;-71
2023/10/27 05:22:35;;;;;;;4.18;3.42;;;;;;;;;;4940429;29;20416;-70
2023/10/27 05:25:06;;;;;;;6.50;3.45;;;;;;;;;;4944188;29;20201;-70
2023/10/27 05:27:34;;;;;;;3.78;3.30;;;;;;;;;;4938277;29;20564;-70
2023/10/27 05:30:05;;;;;;;4.90;3.33;;;;;;;;;;4937287;29;20231;-70
2023/10/27 05:32:33;;;;;;;5.10;3.30;;;;;;;;;;4938071;29;20219;-70
2023/10/27 05:35:02;;;;;;;4.30;3.15;;;;;;;;;;4937022;29;20621;-70
2023/10/27 05:37:30;;;;;;;6.07;2.30;;;;;;;;;;4942534;29;20244;-70
2023/10/27 05:39:58;;;;;;;3.20;2.40;;;;;;;;;;4944173;29;20196;-70
2023/10/27 05:42:28;;;;;;;3.08;2.00;;;;;;;;;;4942190;29;20559;-70
2023/10/27 05:44:56;;;;;;;2.40;2.20;;;;;;;;;;4944621;28;20225;-69
2023/10/27 05:47:25;;;;;;;2.38;2.15;;;;;;;;;;4941483;29;20733;-70
2023/10/27 05:49:54;;;;;;;4.90;2.60;;;;;;;;;;4947008;29;20212;-71
2023/10/27 05:52:23;;;;;;;2.20;2.00;;;;;;;;;;4945331;29;20682;-71
2023/10/27 05:54:51;;;;;;;5.35;2.22;;;;;;;;;;4943949;29;20282;-70
2023/10/27 05:57:20;;;;;;;6.47;2.35;;;;;;;;;;4946899;29;20211;-70
2023/10/27 05:59:49;;;;;;;7.95;3.63;;;;;;;;;;4946439;29;20196;-71
2023/10/27 06:02:20;;;;;;;3.85;2.08;;;;;;;;;;4942608;29;20226;-70
2023/10/27 06:04:48;;;;;;;2.53;2.10;;;;;;;;;;4945800;29;20540;-70
2023/10/27 06:07:17;;;;;;;2.15;1.95;;;;;;;;;;4943059;29;20259;-70
2023/10/27 06:09:46;;;;;;;2.30;2.10;;;;;;;;;;4947413;28;20655;-64
2023/10/27 06:12:15;;;;;;;7.10;2.13;;;;;;;;;;4950271;29;20210;-65
2023/10/27 06:14:45;;;;;;;2.25;1.98;;;;;;;;;;4948832;29;20286;-65
2023/10/27 06:17:14;;;;;;;2.25;1.70;;;;;;;;;;4948469;29;20201;-65
2023/10/27 06:19:43;;;;;;;4.55;1.90;;;;;;;;;;4949456;29;20252;-62
2023/10/27 06:22:12;;;;;;;5.65;1.90;;;;;;;;;;4943905;29;20329;-63
2023/10/27 06:24:40;;;;;;;4.72;2.65;;;;;;;;;;4939281;29;20558;-63
2023/10/27 06:27:09;;;;;;;2.33;2.00;;;;;;;;;;4940846;29;20762;-68
2023/10/27 06:29:37;;;;;;;2.35;2.05;;;;;;;;;;4937466;29;20219;-68
2023/10/27 06:32:06;;;;;;;4.25;1.98;;;;;;;;;;4937712;29;20205;-66
2023/10/27 06:34:35;;;;;;;3.65;1.92;;;;;;;;;;4937599;29;20218;-66
2023/10/27 06:37:05;;;;;;;1.70;1.50;;;;;;;;;;4946533;29;20231;-66
2023/10/27 06:39:33;;;;;;;4.20;1.30;;;;;;;;;;4939773;29;20197;-66
2023/10/27 06:42:02;;;;;;;2.20;1.38;;;;;;;;;;4925948;29;20207;-66
2023/10/27 06:44:30;;;;;;;1.25;1.15;;;;;;;;;;4935134;29;20283;-67
2023/10/27 06:46:58;;;;;;;2.58;1.42;;;;;;;;;;4926641;29;20211;-65
2023/10/27 06:49:27;;;;;;;1.40;1.00;;;;;;;;;;4937135;29;20664;-67
2023/10/27 06:51:56;;;;;;;1.13;1.02;;;;;;;;;;4936487;29;20205;-64
2023/10/27 06:54:25;;;;;;;1.10;1.00;;;;;;;;;;4938020;29;20209;-61
2023/10/27 06:56:54;;;;;;;2.50;1.30;;;;;;;;;;4939851;29;20284;-62
2023/10/27 06:59:22;;;;;;;2.85;1.80;;;;;;;;;;4939123;29;20603;-63
2023/10/27 07:01:52;;;;;;;2.72;1.50;;;;;;;;;;4935231;29;20644;-62
2023/10/27 07:04:20;;;;;;;1.55;1.45;;;;;;;;;;4941801;28;20196;-62
2023/10/27 07:06:48;;;;;;;2.92;1.17;;;;;;;;;;4942123;29;20278;-62
2023/10/27 07:09:18;;;;;;;3.35;1.40;;;;;;;;;;4937794;29;20208;-64
2023/10/27 07:11:46;;;;;;;2.25;1.10;;;;;;;;;;4939791;29;20201;-64
2023/10/27 07:14:14;;;;;;;1.98;1.40;;;;;;;;;;4940607;29;20200;-61
2023/10/27 07:16:43;;;;;;;1.20;1.10;;;;;;;;;;4946214;29;20223;-65
2023/10/27 07:19:12;;;;;;;1.20;1.02;;;;;;;;;;4948258;28;20212;-64
2023/10/27 07:21:41;;;;;;;0.90;0.90;;;;;;;;;;4956166;29;20589;-64
2023/10/27 07:24:09;;;;;;;1.10;1.00;;;;;;;;;;4920411;29;20282;-63
2023/10/27 07:26:39;;;;;;;1.20;1.10;;;;;;;;;;4922510;29;20284;-63
2023/10/27 07:29:08;;;;;;;1.55;1.10;;;;;;;;;;4942659;29;20263;-62
2023/10/27 07:31:37;;;;;;;0.95;0.85;;;;;;;;;;4954414;29;20280;-67
2023/10/27 07:34:06;;;;;;;1.63;0.90;;;;;;;;;;4936865;29;20283;-62
2023/10/27 07:36:34;;;;;;;2.90;0.90;;;;;;;;;;4922884;29;20679;-63
2023/10/27 07:39:03;;;;;;;1.80;0.93;;;;;;;;;;4920910;29;20292;-62
2023/10/27 07:41:32;;;;;;;0.90;0.90;;;;;;;;;;4939221;29;20295;-63
2023/10/27 07:44:03;;;;;;;1.00;0.88;;;;;;;;;;4935462;29;20223;-63
2023/10/27 07:46:31;;;;;;;1.00;0.90;;;;;;;;;;4944849;29;20309;-63
2023/10/27 07:48:59;;;;;;;1.20;1.10;;;;;;;;;;4947181;29;20636;-63
2023/10/27 07:51:28;;;;;;;0.80;0.70;;;;;;;;;;4956287;29;20291;-63
2023/10/27 07:53:56;;;;;;;1.70;0.80;;;;;;;;;;4955449;29;20610;-63
2023/10/27 07:56:24;;;;;;;1.00;0.70;;;;;;;;;;4956362;29;20659;-62
2023/10/27 07:58:53;;;;;;;0.70;0.70;;;;;;;;;;4954421;29;20212;-62
2023/10/27 08:01:22;;;;;;;1.53;0.90;;;;;;;;;;4954913;29;20612;-63
2023/10/27 08:03:51;;;;;;;1.20;1.10;;;;;;;;;;4934754;29;20755;-64
2023/10/27 08:06:19;;;;;;;0.70;0.63;;;;;;;;;;4935444;29;20230;-63
2023/10/27 08:08:47;;;;;;;1.23;0.70;;;;;;;;;;4935571;29;20617;-63
2023/10/27 08:11:17;;;;;;;1.87;0.70;;;;;;;;;;4936221;29;21312;-63
2023/10/27 08:13:45;;;;;;;1.40;0.70;;;;;;;;;;4935551;29;20605;-62
2023/10/27 08:16:14;;;;;;;1.97;0.83;;;;;;;;;;4936737;29;21257;-63
2023/10/27 08:18:45;;;;;;;1.43;0.87;;;;;;;;;;4937412;29;20683;-61
2023/10/27 08:21:14;;;;;;;0.90;0.90;;;;;;;;;;4938058;29;20688;-61
2023/10/27 08:23:42;;;;;;;1.77;0.90;;;;;;;;;;4937375;29;20662;-62
2023/10/27 08:26:09;;;;;;;1.63;0.90;;;;;;;;;;4938115;29;20593;-63
2023/10/27 08:28:37;;;;;;;1.87;0.80;;;;;;;;;;4937616;29;20699;-62
2023/10/27 08:31:06;;;;;;;1.70;0.80;;;;;;;;;;4937579;29;20627;-62
2023/10/27 08:33:34;;;;;;;0.70;0.70;;;;;;;;;;4937525;29;20211;-62
2023/10/27 08:36:04;;;;;;;1.00;0.82;;;;;;;;;;4938196;29;20627;-63
2023/10/27 08:38:33;;;;;;;2.03;0.80;;;;;;;;;;4941028;29;20660;-62
2023/10/27 08:41:01;;;;;;;0.80;0.80;;;;;;;;;;4941633;29;20707;-62
2023/10/27 08:43:30;;;;;;;5.43;1.20;;;;;;;;;;4937233;29;20730;-63
2023/10/27 08:45:58;;;;;;;0.70;0.70;;;;;;;;;;4934108;29;20644;-63
2023/10/27 08:48:27;;;;;;;0.60;0.60;;;;;;;;;;4929028;29;20639;-63
2023/10/27 08:50:58;;;;;;;4.43;0.80;;;;;;;;;;4941309;29;20726;-64
2023/10/27 08:53:28;;;;;;;1.90;0.87;;;;;;;;;;4939898;28;20598;-63
2023/10/27 08:55:57;;;;;;;1.10;0.70;;;;;;;;;;4920112;29;20736;-63
2023/10/27 08:58:25;;;;;;;1.23;0.70;;;;;;;;;;4921394;29;21052;-63
2023/10/27 09:00:54;;;;;;;1.70;0.80;;;;;;;;;;4955936;29;20713;-63
2023/10/27 09:03:22;;;;;;;1.67;0.83;;;;;;;;;;4944128;29;20643;-63
2023/10/27 09:05:50;;;;;;;1.97;0.90;;;;;;;;;;4936571;29;20658;-63
2023/10/27 09:08:19;;;;;;;1.10;0.90;;;;;;;;;;4937860;29;20711;-63
2023/10/27 09:10:48;;;;;;;19.83;1.37;;;;;;;;;;4945440;29;21065;-62
2023/10/27 09:13:21;;;;;;;2.07;0.90;;;;;;;;;;4936988;29;20616;-64
2023/10/27 09:15:50;;;;;;;1.30;1.00;;;;;;;;;;4935975;29;20587;-65
2023/10/27 09:18:18;;;;;;;1.05;0.95;;;;;;;;;;4936793;29;20664;-62
2023/10/27 09:20:48;;;;;;;1.85;1.35;;;;;;;;;;4935940;29;20208;-62
2023/10/27 09:23:16;;;;;;;0.70;0.70;;;;;;;;;;4937138;29;20227;-65
2023/10/27 09:25:44;;;;;;;0.77;0.77;;;;;;;;;;4936486;29;20680;-62
2023/10/27 09:28:14;;;;;;;1.00;1.00;;;;;;;;;;4937239;29;20612;-62
2023/10/27 09:30:44;;;;;;;0.90;0.90;;;;;;;;;;4940004;29;20683;-61
2023/10/27 09:33:13;;;;;;;1.43;0.90;;;;;;;;;;4947997;29;20640;-61
2023/10/27 09:35:42;;;;;;;1.57;1.17;;;;;;;;;;4940239;29;20686;-62
2023/10/27 09:38:10;;;;;;;1.90;1.10;;;;;;;;;;4935337;29;20665;-62
2023/10/27 09:40:39;;;;;;;1.07;1.07;;;;;;;;;;4938422;29;20637;-61
2023/10/27 09:43:08;;;;;;;1.93;1.00;;;;;;;;;;4938769;29;20745;-64
2023/10/27 09:45:40;;;;;;;5.63;1.23;;;;;;;;;;4953972;29;20669;-63
2023/10/27 09:48:08;;;;;;;2.30;0.90;;;;;;;;;;4958896;29;20575;-62
2023/10/27 09:50:36;;;;;;;1.50;0.80;;;;;;;;;;4946265;29;21089;-65
2023/10/27 09:53:04;;;;;;;1.07;1.00;;;;;;;;;;4940391;29;21060;-63
2023/10/27 09:55:33;;;;;;;2.90;1.47;;;;;;;;;;4935009;29;20615;-61
2023/10/27 09:58:01;;;;;;;2.30;0.90;;;;;;;;;;4937790;29;20729;-61
2023/10/27 10:00:31;;;;;;;1.70;1.33;;;;;;;;;;4941292;29;20633;-61
2023/10/27 10:03:02;;;;;;;2.00;1.33;;;;;;;;;;4937683;29;21174;-62
2023/10/27 10:05:51;;;;;;;2.90;1.20;;;;;;;;;;4936693;29;21020;-62
2023/10/27 10:08:20;;;;;;;3.23;1.20;;;;;;;;;;4935781;29;20620;-62
2023/10/27 10:10:48;;;;;;;2.87;1.03;;;;;;;;;;4936180;29;20617;-62
2023/10/27 10:13:19;;;;;;;1.80;1.23;;;;;;;;;;4934708;29;20709;-63
2023/10/27 10:15:53;;;;;;;1.43;1.03;;;;;;;;;;4937860;29;20684;-62
2023/10/27 10:18:41;;;;;;;1.30;1.07;;;;;;;;;;4939006;29;20682;-62
2023/10/27 10:21:11;;;;;;;4.73;1.27;;;;;;;;;;4939031;29;20583;-62
2023/10/27 10:24:08;;;;;;;3.23;1.30;;;;;;;;;;4937678;29;20623;-62
2023/10/27 10:26:54;;;;;;;2.50;1.20;;;;;;;;;;4940938;29;20672;-66
2023/10/27 10:29:32;;;;;;;4.80;1.20;;;;;;;;;;4958054;29;20597;-62
2023/10/27 10:32:19;;;;;;;2.40;1.20;;;;;;;;;;4955877;29;20682;-62
2023/10/27 10:35:02;;;;;;;3.03;1.43;;;;;;;;;;4939406;29;20621;-62
2023/10/27 10:37:32;;;;;;;3.97;1.60;;;;;;;;;;4941980;29;20644;-61
2023/10/27 10:40:19;;;;;;;4.53;1.80;;;;;;;;;;4942265;29;21109;-61
2023/10/27 10:43:06;;;;;;;3.43;1.90;;;;;;;;;;4945094;28;20606;-61
2023/10/27 10:45:44;;;;;;;9.50;1.90;;;;;;;;;;4938369;29;20725;-64
2023/10/27 10:48:13;;;;;;;5.33;1.50;;;;;;;;;;4938889;29;20642;-62
2023/10/27 10:50:42;;;;;;;5.37;1.57;;;;;;;;;;4941216;29;20717;-61
2023/10/27 10:53:16;;;;;;;3.83;1.30;;;;;;;;;;4947280;29;20642;-62
2023/10/27 10:55:46;;;;;;;2.90;1.70;;;;;;;;;;4948346;29;20617;-61
2023/10/27 10:58:21;;;;;;;3.43;1.60;;;;;;;;;;4947663;29;21252;-63
2023/10/27 11:00:49;;;;;;;2.93;1.40;;;;;;;;;;4944133;29;20670;-63
2023/10/27 11:03:18;;;;;;;3.30;1.20;;;;;;;;;;4949215;29;20636;-62
2023/10/27 11:05:47;;;;;;;4.33;1.70;;;;;;;;;;4947807;29;20620;-62
2023/10/27 11:08:25;;;;;;;4.67;1.50;;;;;;;;;;4947453;29;21286;-62
2023/10/27 11:11:00;;;;;;;4.73;1.30;;;;;;;;;;4937700;29;21025;-62
2023/10/27 11:13:28;;;;;;;2.80;1.10;;;;;;;;;;4943201;29;20699;-63
2023/10/27 11:15:57;;;;;;;4.53;1.30;;;;;;;;;;4940878;29;20633;-63
2023/10/27 11:18:28;;;;;;;8.40;1.60;;;;;;;;;;4945214;29;20675;-64
2023/10/27 11:20:56;;;;;;;5.03;1.63;;;;;;;;;;4938319;29;20919;-63
2023/10/27 11:23:29;;;;;;;2.90;1.60;;;;;;;;;;4937065;29;20642;-62
2023/10/27 11:26:04;;;;;;;5.53;1.63;;;;;;;;;;4938633;29;21170;-63
2023/10/27 11:28:37;;;;;;;4.53;1.50;;;;;;;;;;4942848;29;20630;-62
2023/10/27 11:31:07;;;;;;;4.60;1.70;;;;;;;;;;4944518;29;20617;-62
2023/10/27 11:33:55;;;;;;;4.83;1.43;;;;;;;;;;4937897;29;20703;-62
2023/10/27 11:36:24;;;;;;;5.07;1.40;;;;;;;;;;4941095;29;20624;-62
2023/10/27 11:38:53;;;;;;;4.50;1.27;;;;;;;;;;4937295;29;20671;-62
2023/10/27 11:41:21;;;;;;;3.47;1.73;;;;;;;;;;4931383;29;20732;-62
2023/10/27 11:43:50;;;;;;;5.70;1.90;;;;;;;;;;4944989;28;21099;-63
2023/10/27 11:46:19;;;;;;;2.43;1.33;;;;;;;;;;4942810;29;20625;-63
2023/10/27 11:48:48;;;;;;;12.43;1.80;;;;;;;;;;4937772;29;20663;-62
2023/10/27 11:51:16;;;;;;;2.87;1.07;;;;;;;;;;4935318;29;20883;-65
2023/10/27 11:53:45;;;;;;;6.93;1.30;;;;;;;;;;4939051;29;20639;-62
2023/10/27 11:56:14;;;;;;;1.17;1.00;;;;;;;;;;4936275;29;20635;-64
2023/10/27 11:58:43;;;;;;;2.23;1.10;;;;;;;;;;4935686;29;20635;-63
2023/10/27 12:01:11;;;;;;;5.90;1.70;;;;;;;;;;4933578;29;20630;-64
2023/10/27 12:03:40;;;;;;;4.40;1.73;;;;;;;;;;4933158;29;20651;-64
2023/10/27 12:06:08;;;;;;;1.60;1.47;;;;;;;;;;4935600;29;21151;-64
2023/10/27 12:08:37;;;;;;;2.03;1.37;;;;;;;;;;4933006;29;20633;-63
2023/10/27 12:11:05;;;;;;;2.13;1.27;;;;;;;;;;4935747;29;20674;-62
2023/10/27 12:13:34;;;;;;;2.97;1.30;;;;;;;;;;4936323;29;20625;-63
2023/10/27 12:16:03;;;;;;;2.33;1.43;;;;;;;;;;4939986;29;20707;-63
2023/10/27 12:18:32;;;;;;;2.80;1.50;;;;;;;;;;4937366;29;20647;-62
2023/10/27 12:21:01;;;;;;;5.10;2.10;;;;;;;;;;4933912;29;20644;-63
2023/10/27 12:23:30;;;;;;;3.53;1.50;;;;;;;;;;4935343;29;20640;-64
2023/10/27 12:25:59;;;;;;;6.27;1.40;;;;;;;;;;4930031;29;20642;-63
2023/10/27 12:28:28;;;;;;;2.70;1.20;;;;;;;;;;4937549;29;20599;-62
2023/10/27 12:30:58;;;;;;;2.50;1.10;;;;;;;;;;4933538;29;20632;-63
2023/10/27 12:33:26;;;;;;;3.37;1.60;;;;;;;;;;4935431;29;20645;-62
2023/10/27 12:35:55;;;;;;;4.70;1.57;;;;;;;;;;4933517;29;20659;-63
2023/10/27 12:38:23;;;;;;;6.43;1.80;;;;;;;;;;4930476;29;20687;-60
2023/10/27 12:40:51;;;;;;;3.23;1.37;;;;;;;;;;4934790;29;20708;-61
2023/10/27 12:43:21;;;;;;;4.60;1.10;;;;;;;;;;4936808;29;20656;-61
2023/10/27 12:45:49;;;;;;;3.20;1.30;;;;;;;;;;4934420;29;20628;-64
2023/10/27 12:48:20;;;;;;;1.97;1.20;;;;;;;;;;4935600;29;20624;-62
2023/10/27 12:50:48;;;;;;;4.33;1.20;;;;;;;;;;4934688;29;21087;-61
2023/10/27 12:53:18;;;;;;;1.53;1.17;;;;;;;;;;4936260;29;21051;-62
2023/10/27 12:55:46;;;;;;;2.23;1.20;;;;;;;;;;4936208;29;21039;-63
2023/10/27 12:58:14;;;;;;;6.90;1.70;;;;;;;;;;4935904;29;20666;-62
2023/10/27 13:00:43;;;;;;;6.10;1.00;;;;;;;;;;4933799;29;20707;-62
2023/10/27 13:03:11;;;;;;;3.13;0.97;;;;;;;;;;4938052;29;20969;-61
2023/10/27 13:05:41;;;;;;;2.03;1.33;;;;;;;;;;4935988;29;20687;-63
2023/10/27 13:08:10;;;;;;;2.10;1.17;;;;;;;;;;4934030;29;20620;-63
2023/10/27 13:10:38;;;;;;;1.67;1.40;;;;;;;;;;4937752;29;20690;-62
2023/10/27 13:13:06;;;;;;;5.10;2.27;;;;;;;;;;4940505;29;21166;-66
2023/10/27 13:15:35;;;;;;;2.27;1.23;;;;;;;;;;4938036;29;20628;-65
2023/10/27 13:18:03;;;;;;;5.57;1.60;;;;;;;;;;4939268;29;20662;-61
2023/10/27 13:20:32;;;;;;;1.87;1.03;;;;;;;;;;4940214;29;20629;-61
2023/10/27 13:23:01;;;;;;;6.20;1.60;;;;;;;;;;4937421;29;20624;-62
2023/10/27 13:25:30;;;;;;;3.03;1.20;;;;;;;;;;4955997;29;20634;-63
2023/10/27 13:27:58;;;;;;;4.67;1.17;;;;;;;;;;4943883;29;20630;-62
2023/10/27 13:30:26;;;;;;;1.10;1.00;;;;;;;;;;4941459;29;21008;-63
2023/10/27 13:32:54;;;;;;;2.63;1.07;;;;;;;;;;4941396;29;20649;-62
2023/10/27 13:35:23;;;;;;;1.80;1.30;;;;;;;;;;4942963;29;20649;-64
2023/10/27 13:37:52;;;;;;;2.43;1.13;;;;;;;;;;4937937;29;20674;-64
2023/10/27 13:40:22;;;;;;;15.13;1.70;;;;;;;;;;4940188;29;20712;-63
2023/10/27 13:42:51;;;;;;;3.13;1.10;;;;;;;;;;4933307;29;20616;-62
2023/10/27 13:45:19;;;;;;;2.43;0.93;;;;;;;;;;4929255;29;20620;-62
2023/10/27 13:47:50;;;;;;;1.30;1.20;;;;;;;;;;4934464;29;20631;-63
2023/10/27 13:50:20;;;;;;;3.70;1.70;;;;;;;;;;4942272;29;20604;-62
2023/10/27 13:52:51;;;;;;;1.83;1.10;;;;;;;;;;4943931;29;21805;-62
2023/10/27 13:55:19;;;;;;;1.00;0.90;;;;;;;;;;4946249;29;20647;-62
2023/10/27 13:57:49;;;;;;;1.10;1.00;;;;;;;;;;4944144;29;20716;-62
2023/10/27 14:00:17;;;;;;;3.60;1.47;;;;;;;;;;4947709;29;20642;-61
2023/10/27 14:02:46;;;;;;;1.53;1.10;;;;;;;;;;4946933;29;20594;-62
2023/10/27 14:05:14;;;;;;;2.10;0.97;;;;;;;;;;4947125;29;20599;-62
2023/10/27 14:07:43;;;;;;;6.80;1.23;;;;;;;;;;4946748;29;20691;-62
2023/10/27 14:10:11;;;;;;;1.33;1.03;;;;;;;;;;4948877;29;20612;-61
2023/10/27 14:12:40;;;;;;;3.17;1.20;;;;;;;;;;4948711;29;20617;-61
2023/10/27 14:15:13;;;;;;;3.20;1.40;;;;;;;;;;4943969;29;20606;-62
2023/10/27 14:17:41;;;;;;;3.13;1.10;;;;;;;;;;4952305;29;20650;-62
2023/10/27 14:20:10;;;;;;;1.20;1.10;;;;;;;;;;4958114;29;20661;-62
2023/10/27 14:22:38;;;;;;;1.33;1.10;;;;;;;;;;4944175;29;20617;-62
2023/10/27 14:25:07;;;;;;;2.00;1.10;;;;;;;;;;4947087;29;20606;-63
2023/10/27 14:27:36;;;;;;;1.80;1.17;;;;;;;;;;4945579;29;20637;-62
2023/10/27 14:30:05;;;;;;;2.20;1.00;;;;;;;;;;4944111;29;20624;-63
2023/10/27 14:32:36;;;;;;;2.47;1.43;;;;;;;;;;4949116;29;20762;-66
2023/10/27 14:35:05;;;;;;;1.37;0.97;;;;;;;;;;4947740;29;20700;-64
2023/10/27 14:37:34;;;;;;;5.53;1.30;;;;;;;;;;4952174;29;20767;-62
2023/10/27 14:40:03;;;;;;;1.13;0.90;;;;;;;;;;4945694;29;20970;-61
2023/10/27 14:42:32;;;;;;;2.23;1.50;;;;;;;;;;4930010;29;20641;-61
2023/10/27 14:45:00;;;;;;;1.67;1.27;;;;;;;;;;4934111;29;20651;-62
2023/10/27 14:47:28;;;;;;;2.10;1.37;;;;;;;;;;4942358;29;20635;-62
2023/10/27 14:49:58;;;;;;;2.10;1.23;;;;;;;;;;4937508;29;20631;-64